createdAt,value
2023-05-14T00:00:03.758Z,87
2023-05-14T00:01:00.802Z,86
2023-05-14T00:02:00.906Z,86
2023-05-14T00:03:00.922Z,86
2023-05-14T00:04:01.073Z,86
2023-05-14T00:05:03.428Z,86
2023-05-14T00:06:00.909Z,86
2023-05-14T00:07:00.883Z,86
2023-05-14T00:08:02.124Z,86
2023-05-14T00:09:00.847Z,86
2023-05-14T00:10:03.856Z,86
2023-05-14T00:11:00.835Z,86
2023-05-14T00:12:00.955Z,86
2023-05-14T00:13:00.862Z,86
2023-05-14T00:14:00.957Z,86
2023-05-14T00:15:03.357Z,86
2023-05-14T00:16:01.005Z,86
2023-05-14T00:17:00.894Z,86
2023-05-14T00:18:01.067Z,86
2023-05-14T00:19:00.955Z,86
2023-05-14T00:20:04.065Z,86
2023-05-14T00:21:00.897Z,86
2023-05-14T00:22:00.994Z,86
2023-05-14T00:23:00.933Z,86
2023-05-14T00:24:02.066Z,86
2023-05-14T00:25:03.447Z,86
2023-05-14T00:26:01.006Z,86
2023-05-14T00:27:00.964Z,86
2023-05-14T00:28:01.014Z,86
2023-05-14T00:29:00.943Z,86
2023-05-14T00:30:03.964Z,86
2023-05-14T00:31:00.971Z,86
2023-05-14T00:32:01.056Z,86
2023-05-14T00:33:01.015Z,86
2023-05-14T00:34:01.016Z,86
2023-05-14T00:35:03.624Z,86
2023-05-14T00:38:02.126Z,86
2023-05-14T00:39:00.984Z,86
2023-05-14T00:40:04.531Z,86
2023-05-14T00:41:01.009Z,86
2023-05-14T00:42:01.157Z,86
2023-05-14T00:43:01.016Z,86
2023-05-14T00:44:01.118Z,86
2023-05-14T00:45:04.665Z,86
2023-05-14T00:46:01.106Z,86
2023-05-14T00:47:01.166Z,86
2023-05-14T00:48:01.210Z,86
2023-05-14T00:49:01.081Z,86
2023-05-14T00:50:04.090Z,86
2023-05-14T00:51:01.092Z,86
2023-05-14T00:52:02.086Z,86
2023-05-14T00:53:01.094Z,86
2023-05-14T00:54:01.149Z,86
2023-05-14T00:55:03.766Z,86
2023-05-14T00:56:01.220Z,86
2023-05-14T00:57:01.166Z,86
2023-05-14T00:58:01.170Z,86
2023-05-14T00:59:01.161Z,86
2023-05-14T01:00:04.481Z,86
2023-05-14T01:01:01.167Z,86
2023-05-14T01:02:01.211Z,86
2023-05-14T01:03:01.304Z,86
2023-05-14T01:04:01.348Z,86
2023-05-14T01:05:03.797Z,86
2023-05-14T01:06:00.251Z,86
2023-05-14T01:07:00.182Z,86
2023-05-14T01:08:00.256Z,86
2023-05-14T01:09:00.240Z,86
2023-05-14T01:10:03.302Z,86
2023-05-14T01:11:00.204Z,86
2023-05-14T01:12:00.252Z,86
2023-05-14T01:13:00.238Z,86
2023-05-14T01:14:00.330Z,86
2023-05-14T01:15:02.898Z,86
2023-05-14T01:16:00.325Z,86
2023-05-14T01:17:00.251Z,86
2023-05-14T01:18:00.382Z,86
2023-05-14T01:19:00.319Z,86
2023-05-14T01:20:03.366Z,86
2023-05-14T01:21:00.251Z,86
2023-05-14T01:22:00.326Z,86
2023-05-14T01:23:00.277Z,86
2023-05-14T01:24:00.364Z,86
2023-05-14T01:25:03.560Z,87
2023-05-14T01:26:00.373Z,87
2023-05-14T01:27:00.298Z,87
2023-05-14T01:28:00.369Z,87
2023-05-14T01:29:00.322Z,87
2023-05-14T01:30:03.547Z,87
2023-05-14T01:31:00.317Z,87
2023-05-14T01:32:00.460Z,87
2023-05-14T01:33:00.422Z,87
2023-05-14T01:34:00.403Z,87
2023-05-14T01:35:02.789Z,87
2023-05-14T01:36:00.434Z,87
2023-05-14T01:37:00.372Z,87
2023-05-14T01:38:00.467Z,87
2023-05-14T01:39:00.365Z,87
2023-05-14T01:40:04.114Z,87
2023-05-14T01:41:00.378Z,87
2023-05-14T01:42:00.468Z,87
2023-05-14T01:43:00.488Z,87
2023-05-14T01:44:00.533Z,87
2023-05-14T01:45:02.771Z,87
2023-05-14T01:46:00.515Z,87
2023-05-14T01:47:00.417Z,87
2023-05-14T01:48:00.551Z,87
2023-05-14T01:49:00.456Z,87
2023-05-14T01:50:03.974Z,87
2023-05-14T01:51:00.437Z,87
2023-05-14T01:52:00.483Z,87
2023-05-14T01:53:00.420Z,87
2023-05-14T01:54:00.507Z,87
2023-05-14T01:55:03.045Z,87
2023-05-14T01:56:00.527Z,87
2023-05-14T01:57:00.456Z,88
2023-05-14T01:58:02.110Z,88
2023-05-14T01:59:00.458Z,88
2023-05-14T02:00:03.381Z,88
2023-05-14T02:01:00.493Z,88
2023-05-14T02:02:00.866Z,88
2023-05-14T02:03:00.537Z,88
2023-05-14T02:04:00.621Z,88
2023-05-14T02:05:04.289Z,88
2023-05-14T02:06:02.099Z,88
2023-05-14T02:07:00.517Z,88
2023-05-14T02:08:00.610Z,88
2023-05-14T02:09:00.523Z,88
2023-05-14T02:10:03.739Z,88
2023-05-14T02:11:00.517Z,88
2023-05-14T02:12:00.604Z,88
2023-05-14T02:13:00.533Z,88
2023-05-14T02:14:02.128Z,88
2023-05-14T02:15:03.032Z,88
2023-05-14T02:16:00.710Z,88
2023-05-14T02:17:00.551Z,88
2023-05-14T02:18:00.689Z,88
2023-05-14T02:19:00.629Z,88
2023-05-14T02:20:03.509Z,88
2023-05-14T02:21:00.581Z,88
2023-05-14T02:22:02.096Z,88
2023-05-14T02:23:00.596Z,88
2023-05-14T02:24:00.663Z,88
2023-05-14T02:25:03.008Z,88
2023-05-14T02:26:00.678Z,88
2023-05-14T02:27:00.655Z,88
2023-05-14T02:28:00.665Z,88
2023-05-14T02:29:00.603Z,88
2023-05-14T02:30:05.505Z,88
2023-05-14T02:31:00.657Z,88
2023-05-14T02:32:00.746Z,88
2023-05-14T02:33:00.729Z,88
2023-05-14T02:34:00.705Z,88
2023-05-14T02:35:03.828Z,88
2023-05-14T02:36:02.100Z,88
2023-05-14T02:37:00.667Z,88
2023-05-14T02:38:00.743Z,88
2023-05-14T02:39:00.665Z,88
2023-05-14T02:40:03.567Z,88
2023-05-14T02:41:00.692Z,88
2023-05-14T02:42:00.763Z,88
2023-05-14T02:43:00.693Z,88
2023-05-14T02:44:00.789Z,88
2023-05-14T02:45:03.217Z,89
2023-05-14T02:46:00.771Z,89
2023-05-14T02:47:00.737Z,88
2023-05-14T02:48:01.020Z,88
2023-05-14T02:49:00.730Z,88
2023-05-14T02:50:04.112Z,89
2023-05-14T02:51:00.727Z,89
2023-05-14T02:52:00.818Z,89
2023-05-14T02:53:00.733Z,89
2023-05-14T02:54:00.864Z,89
2023-05-14T02:55:03.358Z,89
2023-05-14T02:56:00.823Z,89
2023-05-14T02:57:00.793Z,89
2023-05-14T02:58:00.834Z,89
2023-05-14T02:59:00.765Z,89
2023-05-14T03:00:05.792Z,89
2023-05-14T03:01:01.898Z,89
2023-05-14T03:02:01.927Z,89
2023-05-14T03:03:01.859Z,89
2023-05-14T03:04:02.129Z,89
2023-05-14T03:05:04.297Z,89
2023-05-14T03:06:01.864Z,89
2023-05-14T03:07:01.821Z,89
2023-05-14T03:08:01.897Z,89
2023-05-14T03:09:01.861Z,89
2023-05-14T03:10:04.863Z,89
2023-05-14T03:11:01.830Z,89
2023-05-14T03:12:01.933Z,89
2023-05-14T03:13:01.904Z,89
2023-05-14T03:14:01.939Z,89
2023-05-14T03:15:04.887Z,89
2023-05-14T03:16:01.924Z,89
2023-05-14T03:17:01.948Z,89
2023-05-14T03:18:02.016Z,89
2023-05-14T03:19:02.009Z,89
2023-05-14T03:20:04.995Z,89
2023-05-14T03:21:01.936Z,89
2023-05-14T03:22:01.983Z,89
2023-05-14T03:23:02.156Z,89
2023-05-14T03:24:02.133Z,89
2023-05-14T03:25:04.505Z,89
2023-05-14T03:26:02.017Z,89
2023-05-14T03:27:01.966Z,89
2023-05-14T03:28:01.998Z,89
2023-05-14T03:29:01.936Z,89
2023-05-14T03:30:05.971Z,89
2023-05-14T03:31:02.002Z,89
2023-05-14T03:32:02.028Z,89
2023-05-14T03:33:02.045Z,89
2023-05-14T03:34:02.060Z,89
2023-05-14T03:35:04.395Z,89
2023-05-14T03:36:02.081Z,89
2023-05-14T03:37:01.989Z,89
2023-05-14T03:38:02.103Z,89
2023-05-14T03:39:02.021Z,89
2023-05-14T03:40:05.100Z,89
2023-05-14T03:41:01.987Z,89
2023-05-14T03:42:02.111Z,89
2023-05-14T03:43:02.047Z,89
2023-05-14T03:44:01.094Z,89
2023-05-14T03:45:03.607Z,89
2023-05-14T03:46:01.105Z,89
2023-05-14T03:47:01.035Z,89
2023-05-14T03:48:01.205Z,89
2023-05-14T03:49:01.189Z,89
2023-05-14T03:50:03.947Z,89
2023-05-14T03:51:01.085Z,89
2023-05-14T03:52:02.126Z,89
2023-05-14T03:53:01.063Z,89
2023-05-14T03:54:01.161Z,89
2023-05-14T03:55:03.534Z,89
2023-05-14T03:56:01.165Z,89
2023-05-14T03:57:01.112Z,89
2023-05-14T03:58:01.139Z,89
2023-05-14T03:59:01.107Z,89
2023-05-14T04:00:04.692Z,89
2023-05-14T04:01:01.128Z,90
2023-05-14T04:02:01.193Z,90
2023-05-14T04:03:01.183Z,90
2023-05-14T04:04:01.348Z,90
2023-05-14T04:05:03.765Z,90
2023-05-14T04:06:02.127Z,90
2023-05-14T04:07:01.144Z,90
2023-05-14T04:08:01.203Z,90
2023-05-14T04:09:01.176Z,90
2023-05-14T04:10:04.721Z,90
2023-05-14T04:11:00.181Z,90
2023-05-14T04:12:00.255Z,90
2023-05-14T04:13:00.201Z,90
2023-05-14T04:14:00.290Z,90
2023-05-14T04:15:02.763Z,90
2023-05-14T04:16:00.310Z,90
2023-05-14T04:17:00.498Z,90
2023-05-14T04:18:00.313Z,90
2023-05-14T04:19:00.216Z,90
2023-05-14T04:20:03.313Z,90
2023-05-14T04:21:00.237Z,90
2023-05-14T04:22:00.319Z,90
2023-05-14T04:23:00.226Z,90
2023-05-14T04:24:00.299Z,90
2023-05-14T04:25:03.615Z,90
2023-05-14T04:26:00.305Z,90
2023-05-14T04:27:00.238Z,90
2023-05-14T04:28:00.477Z,90
2023-05-14T04:29:00.231Z,90
2023-05-14T04:30:03.348Z,90
2023-05-14T04:31:00.246Z,90
2023-05-14T04:32:00.500Z,90
2023-05-14T04:33:00.324Z,90
2023-05-14T04:34:00.366Z,90
2023-05-14T04:35:02.897Z,90
2023-05-14T04:36:00.476Z,90
2023-05-14T04:37:00.296Z,90
2023-05-14T04:38:00.389Z,90
2023-05-14T04:39:00.311Z,90
2023-05-14T04:40:03.765Z,90
2023-05-14T04:41:00.307Z,90
2023-05-14T04:42:00.408Z,90
2023-05-14T04:43:00.336Z,90
2023-05-14T04:44:00.404Z,90
2023-05-14T04:45:03.176Z,90
2023-05-14T04:46:00.498Z,90
2023-05-14T04:47:00.360Z,90
2023-05-14T04:48:00.650Z,90
2023-05-14T04:49:00.356Z,90
2023-05-14T04:50:03.802Z,90
2023-05-14T04:51:00.389Z,90
2023-05-14T04:52:00.490Z,90
2023-05-14T04:53:00.396Z,90
2023-05-14T04:54:00.532Z,90
2023-05-14T04:55:02.962Z,90
2023-05-14T04:56:00.504Z,90
2023-05-14T04:57:00.456Z,90
2023-05-14T04:58:00.518Z,90
2023-05-14T04:59:00.417Z,90
2023-05-14T05:00:05.245Z,90
2023-05-14T05:01:00.596Z,90
2023-05-14T05:02:00.520Z,90
2023-05-14T05:03:00.735Z,90
2023-05-14T05:04:00.639Z,90
2023-05-14T05:05:02.979Z,90
2023-05-14T05:06:00.558Z,90
2023-05-14T05:07:00.545Z,90
2023-05-14T05:08:00.568Z,90
2023-05-14T05:09:01.960Z,90
2023-05-14T05:10:03.506Z,90
2023-05-14T05:11:00.493Z,90
2023-05-14T05:12:00.589Z,90
2023-05-14T05:13:00.590Z,90
2023-05-14T05:14:00.655Z,90
2023-05-14T05:15:03.108Z,90
2023-05-14T05:16:00.763Z,90
2023-05-14T05:17:00.600Z,90
2023-05-14T05:18:00.688Z,90
2023-05-14T05:19:00.773Z,90
2023-05-14T05:20:04.657Z,90
2023-05-14T05:21:00.670Z,90
2023-05-14T05:22:00.676Z,90
2023-05-14T05:23:00.629Z,90
2023-05-14T05:24:00.679Z,90
2023-05-14T05:25:03.399Z,90
2023-05-14T05:26:00.732Z,90
2023-05-14T05:27:00.655Z,90
2023-05-14T05:28:00.740Z,90
2023-05-14T05:29:00.640Z,90
2023-05-14T05:30:04.279Z,90
2023-05-14T05:31:00.729Z,90
2023-05-14T05:32:00.824Z,90
2023-05-14T05:33:00.755Z,90
2023-05-14T05:34:00.769Z,90
2023-05-14T05:35:03.213Z,90
2023-05-14T05:36:00.810Z,90
2023-05-14T05:37:00.700Z,90
2023-05-14T05:38:01.773Z,90
2023-05-14T05:39:00.720Z,90
2023-05-14T05:40:05.164Z,90
2023-05-14T05:41:00.698Z,90
2023-05-14T05:42:00.858Z,90
2023-05-14T05:43:00.799Z,90
2023-05-14T05:44:00.825Z,90
2023-05-14T05:45:03.849Z,89
2023-05-14T05:46:00.936Z,89
2023-05-14T05:47:00.816Z,89
2023-05-14T05:48:00.919Z,88
2023-05-14T05:49:00.835Z,88
2023-05-14T05:50:03.761Z,88
2023-05-14T05:51:00.877Z,88
2023-05-14T05:52:00.893Z,88
2023-05-14T05:53:00.783Z,87
2023-05-14T05:54:00.924Z,87
2023-05-14T05:55:06.586Z,86
2023-05-14T05:56:00.935Z,86
2023-05-14T05:57:00.817Z,86
2023-05-14T05:58:01.036Z,86
2023-05-14T05:59:00.829Z,86
2023-05-14T06:00:03.956Z,85
2023-05-14T06:01:00.857Z,85
2023-05-14T06:02:01.059Z,85
2023-05-14T06:03:00.911Z,84
2023-05-14T06:04:00.958Z,84
2023-05-14T06:05:04.098Z,83
2023-05-14T06:06:01.026Z,83
2023-05-14T06:07:00.898Z,83
2023-05-14T06:08:01.035Z,81
2023-05-14T06:09:00.945Z,81
2023-05-14T06:10:03.644Z,81
2023-05-14T06:11:00.920Z,81
2023-05-14T06:12:01.127Z,81
2023-05-14T06:13:00.936Z,80
2023-05-14T06:14:01.018Z,80
2023-05-14T06:15:04.493Z,79
2023-05-14T06:16:01.085Z,79
2023-05-14T06:17:01.025Z,79
2023-05-14T06:18:01.127Z,78
2023-05-14T06:19:00.986Z,78
2023-05-14T06:22:15.720Z,77
2023-05-14T06:23:01.008Z,78
2023-05-14T06:24:01.126Z,78
2023-05-14T06:25:03.786Z,77
2023-05-14T06:26:01.114Z,77
2023-05-14T06:27:01.046Z,77
2023-05-14T06:28:01.239Z,77
2023-05-14T06:29:01.068Z,77
2023-05-14T06:30:04.352Z,77
2023-05-14T06:31:01.057Z,75
2023-05-14T06:32:01.326Z,75
2023-05-14T06:33:01.133Z,73
2023-05-14T06:34:01.280Z,73
2023-05-14T06:35:19.275Z,73
2023-05-14T06:36:01.183Z,73
2023-05-14T06:37:01.096Z,73
2023-05-14T06:38:01.168Z,71
2023-05-14T06:39:01.129Z,71
2023-05-14T06:40:04.391Z,71
2023-05-14T06:41:01.105Z,71
2023-05-14T06:42:01.187Z,71
2023-05-14T06:43:01.121Z,69
2023-05-14T06:44:01.175Z,69
2023-05-14T06:45:03.461Z,69
2023-05-14T06:46:01.263Z,70
2023-05-14T06:47:01.137Z,70
2023-05-14T06:48:01.242Z,70
2023-05-14T06:49:01.160Z,70
2023-05-14T06:50:04.222Z,70
2023-05-14T06:51:01.175Z,70
2023-05-14T06:52:01.265Z,70
2023-05-14T06:53:00.169Z,70
2023-05-14T06:54:00.251Z,70
2023-05-14T06:55:02.751Z,70
2023-05-14T06:56:00.479Z,69
2023-05-14T06:57:00.196Z,69
2023-05-14T06:58:00.285Z,70
2023-05-14T06:59:00.186Z,70
2023-05-14T07:00:03.939Z,70
2023-05-14T07:01:00.259Z,69
2023-05-14T07:02:00.400Z,69
2023-05-14T07:03:00.330Z,69
2023-05-14T07:04:00.376Z,69
2023-05-14T07:05:02.668Z,69
2023-05-14T07:06:00.310Z,70
2023-05-14T07:07:00.295Z,70
2023-05-14T07:08:00.329Z,70
2023-05-14T07:09:00.279Z,70
2023-05-14T07:10:05.509Z,71
2023-05-14T07:11:00.263Z,71
2023-05-14T07:12:00.361Z,71
2023-05-14T07:13:00.290Z,71
2023-05-14T07:14:00.354Z,71
2023-05-14T07:15:02.970Z,69
2023-05-14T07:16:00.418Z,69
2023-05-14T07:17:00.384Z,69
2023-05-14T07:18:00.482Z,68
2023-05-14T07:19:00.357Z,68
2023-05-14T07:20:03.923Z,68
2023-05-14T07:21:00.323Z,67
2023-05-14T07:22:00.432Z,67
2023-05-14T07:23:00.333Z,66
2023-05-14T07:24:00.420Z,66
2023-05-14T07:25:02.877Z,66
2023-05-14T07:26:00.419Z,66
2023-05-14T07:27:00.373Z,66
2023-05-14T07:28:00.471Z,66
2023-05-14T07:29:00.365Z,64
2023-05-14T07:30:03.292Z,64
2023-05-14T07:31:00.450Z,65
2023-05-14T07:32:00.447Z,65
2023-05-14T07:33:00.482Z,65
2023-05-14T07:34:00.510Z,64
2023-05-14T07:35:02.948Z,64
2023-05-14T07:36:00.488Z,64
2023-05-14T07:37:00.410Z,64
2023-05-14T07:38:00.477Z,64
2023-05-14T07:39:00.438Z,62
2023-05-14T07:40:03.797Z,62
2023-05-14T07:41:00.411Z,62
2023-05-14T07:42:00.551Z,62
2023-05-14T07:43:00.422Z,62
2023-05-14T07:44:00.518Z,63
2023-05-14T07:45:02.982Z,63
2023-05-14T07:46:00.530Z,62
2023-05-14T07:47:00.606Z,62
2023-05-14T07:48:03.787Z,62
2023-05-14T07:49:00.471Z,62
2023-05-14T07:50:03.491Z,62
2023-05-14T07:51:00.473Z,62
2023-05-14T07:52:00.581Z,61
2023-05-14T07:53:00.479Z,61
2023-05-14T07:54:00.586Z,62
2023-05-14T07:55:03.018Z,62
2023-05-14T07:56:00.580Z,61
2023-05-14T07:57:00.528Z,61
2023-05-14T07:58:00.601Z,62
2023-05-14T07:59:00.558Z,62
2023-05-14T08:00:03.513Z,62
2023-05-14T08:01:00.555Z,59
2023-05-14T08:02:00.673Z,59
2023-05-14T08:03:00.858Z,59
2023-05-14T08:04:00.785Z,58
2023-05-14T08:05:04.222Z,58
2023-05-14T08:06:00.660Z,59
2023-05-14T08:07:00.582Z,59
2023-05-14T08:08:00.682Z,59
2023-05-14T08:09:00.611Z,58
2023-05-14T08:10:03.322Z,58
2023-05-14T08:11:00.653Z,58
2023-05-14T08:12:00.717Z,55
2023-05-14T08:13:00.629Z,55
2023-05-14T08:14:00.701Z,55
2023-05-14T08:15:03.546Z,55
2023-05-14T08:16:00.809Z,55
2023-05-14T08:17:00.697Z,56
2023-05-14T08:18:00.776Z,56
2023-05-14T08:19:00.715Z,57
2023-05-14T08:20:03.382Z,57
2023-05-14T08:21:03.199Z,57
2023-05-14T08:22:00.758Z,57
2023-05-14T08:23:00.695Z,57
2023-05-14T08:24:00.762Z,59
2023-05-14T08:25:03.557Z,59
2023-05-14T08:26:01.806Z,59
2023-05-14T08:27:00.727Z,59
2023-05-14T08:28:00.795Z,59
2023-05-14T08:29:00.726Z,57
2023-05-14T08:30:03.807Z,57
2023-05-14T08:31:00.757Z,56
2023-05-14T08:32:11.617Z,56
2023-05-14T08:33:00.763Z,56
2023-05-14T08:34:01.336Z,60
2023-05-14T08:35:03.781Z,60
2023-05-14T08:36:01.901Z,60
2023-05-14T08:37:00.793Z,59
2023-05-14T08:38:04.390Z,59
2023-05-14T08:39:00.788Z,58
2023-05-14T08:40:11.044Z,58
2023-05-14T08:41:00.785Z,58
2023-05-14T08:42:01.572Z,58
2023-05-14T08:43:00.799Z,58
2023-05-14T08:44:01.864Z,59
2023-05-14T08:45:04.912Z,59
2023-05-14T08:46:00.900Z,59
2023-05-14T08:47:00.811Z,58
2023-05-14T08:48:04.349Z,58
2023-05-14T08:49:00.881Z,58
2023-05-14T08:50:04.725Z,57
2023-05-14T08:51:00.858Z,57
2023-05-14T08:52:05.201Z,57
2023-05-14T08:53:00.864Z,57
2023-05-14T08:54:01.292Z,57
2023-05-14T08:55:03.514Z,57
2023-05-14T08:56:01.218Z,57
2023-05-14T08:57:00.911Z,55
2023-05-14T08:58:01.322Z,55
2023-05-14T08:59:00.887Z,55
2023-05-14T09:00:05.425Z,55
2023-05-14T09:01:00.936Z,55
2023-05-14T09:02:01.421Z,55
2023-05-14T09:03:01.011Z,55
2023-05-14T09:04:01.519Z,55
2023-05-14T09:05:03.453Z,54
2023-05-14T09:06:01.327Z,54
2023-05-14T09:07:00.964Z,54
2023-05-14T09:08:01.397Z,52
2023-05-14T09:09:00.970Z,52
2023-05-14T09:10:05.490Z,53
2023-05-14T09:11:00.996Z,53
2023-05-14T09:12:01.416Z,53
2023-05-14T09:13:00.990Z,56
2023-05-14T09:14:01.470Z,56
2023-05-14T09:15:03.814Z,57
2023-05-14T09:16:01.477Z,57
2023-05-14T09:17:01.030Z,57
2023-05-14T09:18:01.471Z,57
2023-05-14T09:19:01.055Z,57
2023-05-14T09:20:04.145Z,57
2023-05-14T09:21:01.068Z,57
2023-05-14T09:22:01.495Z,57
2023-05-14T09:23:01.075Z,56
2023-05-14T09:24:01.504Z,56
2023-05-14T09:25:03.452Z,58
2023-05-14T09:26:01.484Z,58
2023-05-14T09:27:01.090Z,57
2023-05-14T09:28:01.586Z,57
2023-05-14T09:29:01.100Z,57
2023-05-14T09:30:04.598Z,55
2023-05-14T09:31:01.112Z,55
2023-05-14T09:32:01.662Z,55
2023-05-14T09:33:01.160Z,55
2023-05-14T09:34:01.582Z,55
2023-05-14T09:35:03.722Z,55
2023-05-14T09:36:01.617Z,55
2023-05-14T09:37:01.170Z,55
2023-05-14T09:38:00.212Z,55
2023-05-14T09:39:00.166Z,55
2023-05-14T09:40:03.259Z,53
2023-05-14T09:41:00.181Z,53
2023-05-14T09:42:00.247Z,53
2023-05-14T09:43:00.206Z,54
2023-05-14T09:44:00.244Z,54
2023-05-14T09:45:03.236Z,53
2023-05-14T09:46:00.645Z,53
2023-05-14T09:47:00.268Z,53
2023-05-14T09:48:00.392Z,52
2023-05-14T09:49:00.214Z,52
2023-05-14T09:50:03.347Z,53
2023-05-14T09:51:01.144Z,53
2023-05-14T09:52:00.310Z,53
2023-05-14T09:53:00.221Z,54
2023-05-14T09:54:00.331Z,54
2023-05-14T09:55:04.402Z,54
2023-05-14T09:56:00.314Z,55
2023-05-14T09:57:00.238Z,55
2023-05-14T09:58:00.334Z,55
2023-05-14T09:59:00.273Z,55
2023-05-14T10:00:03.656Z,56
2023-05-14T10:01:00.352Z,56
2023-05-14T10:02:00.342Z,56
2023-05-14T10:03:00.327Z,56
2023-05-14T10:04:00.424Z,56
2023-05-14T10:05:02.968Z,54
2023-05-14T10:06:00.392Z,54
2023-05-14T10:07:00.321Z,54
2023-05-14T10:08:00.377Z,57
2023-05-14T10:09:00.349Z,57
2023-05-14T10:10:03.677Z,55
2023-05-14T10:11:00.379Z,55
2023-05-14T10:12:00.456Z,54
2023-05-14T10:13:00.369Z,54
2023-05-14T10:14:00.445Z,54
2023-05-14T10:15:03.334Z,53
2023-05-14T10:16:00.483Z,53
2023-05-14T10:17:00.423Z,53
2023-05-14T10:18:00.657Z,53
2023-05-14T10:19:00.469Z,53
2023-05-14T10:20:03.769Z,51
2023-05-14T10:21:00.426Z,51
2023-05-14T10:22:00.526Z,51
2023-05-14T10:23:00.442Z,51
2023-05-14T10:24:00.520Z,51
2023-05-14T10:25:03.166Z,51
2023-05-14T10:26:00.535Z,52
2023-05-14T10:27:00.480Z,52
2023-05-14T10:28:00.548Z,51
2023-05-14T10:29:00.442Z,51
2023-05-14T10:30:04.014Z,51
2023-05-14T10:31:00.624Z,49
2023-05-14T10:32:00.537Z,49
2023-05-14T10:33:00.523Z,49
2023-05-14T10:34:00.584Z,49
2023-05-14T10:35:03.185Z,49
2023-05-14T10:36:00.585Z,49
2023-05-14T10:37:00.485Z,49
2023-05-14T10:38:00.577Z,47
2023-05-14T10:39:00.539Z,47
2023-05-14T10:40:03.705Z,47
2023-05-14T10:41:00.512Z,48
2023-05-14T10:42:00.596Z,48
2023-05-14T10:43:00.561Z,49
2023-05-14T10:44:00.585Z,49
2023-05-14T10:45:03.187Z,46
2023-05-14T10:46:00.634Z,46
2023-05-14T10:47:00.613Z,46
2023-05-14T10:48:00.699Z,46
2023-05-14T10:49:00.555Z,46
2023-05-14T10:50:04.493Z,46
2023-05-14T10:51:00.678Z,45
2023-05-14T10:52:00.700Z,45
2023-05-14T10:53:00.597Z,45
2023-05-14T10:54:00.693Z,45
2023-05-14T10:55:03.802Z,45
2023-05-14T10:56:00.676Z,44
2023-05-14T10:57:00.636Z,44
2023-05-14T10:58:00.709Z,45
2023-05-14T10:59:00.661Z,45
2023-05-14T11:00:03.667Z,45
2023-05-14T11:01:00.665Z,45
2023-05-14T11:02:00.769Z,45
2023-05-14T11:03:00.754Z,45
2023-05-14T11:04:00.818Z,45
2023-05-14T11:05:03.499Z,45
2023-05-14T11:06:00.768Z,47
2023-05-14T11:07:00.683Z,47
2023-05-14T11:08:00.760Z,45
2023-05-14T11:09:00.730Z,45
2023-05-14T11:10:05.573Z,45
2023-05-14T11:11:00.726Z,46
2023-05-14T11:12:00.824Z,46
2023-05-14T11:13:00.738Z,46
2023-05-14T11:14:00.821Z,49
2023-05-14T11:15:03.352Z,49
2023-05-14T11:16:06.305Z,50
2023-05-14T11:17:00.804Z,50
2023-05-14T11:18:00.893Z,50
2023-05-14T11:19:00.834Z,51
2023-05-14T11:20:03.839Z,51
2023-05-14T11:21:00.849Z,50
2023-05-14T11:22:00.892Z,50
2023-05-14T11:23:00.786Z,50
2023-05-14T11:24:00.872Z,52
2023-05-14T11:25:03.385Z,52
2023-05-14T11:26:00.928Z,52
2023-05-14T11:27:00.807Z,52
2023-05-14T11:28:00.912Z,52
2023-05-14T11:29:00.823Z,51
2023-05-14T11:30:05.238Z,51
2023-05-14T11:31:00.829Z,52
2023-05-14T11:32:00.971Z,52
2023-05-14T11:33:02.216Z,52
2023-05-14T11:34:00.948Z,52
2023-05-14T11:35:04.572Z,52
2023-05-14T11:36:00.936Z,52
2023-05-14T11:37:00.856Z,52
2023-05-14T11:38:00.940Z,52
2023-05-14T11:39:00.875Z,52
2023-05-14T11:40:03.714Z,52
2023-05-14T11:41:00.876Z,53
2023-05-14T11:42:00.969Z,53
2023-05-14T11:43:00.898Z,53
2023-05-14T11:44:00.986Z,50
2023-05-14T11:45:04.898Z,50
2023-05-14T11:46:01.048Z,50
2023-05-14T11:47:00.948Z,51
2023-05-14T11:48:01.060Z,51
2023-05-14T11:49:00.957Z,51
2023-05-14T11:50:05.615Z,51
2023-05-14T11:51:01.017Z,51
2023-05-14T11:52:01.038Z,53
2023-05-14T11:53:00.998Z,53
2023-05-14T11:54:01.086Z,54
2023-05-14T11:55:04.205Z,54
2023-05-14T11:56:01.111Z,54
2023-05-14T11:57:01.058Z,54
2023-05-14T11:58:01.094Z,54
2023-05-14T11:59:01.031Z,55
2023-05-14T12:00:03.877Z,55
2023-05-14T12:01:01.042Z,55
2023-05-14T12:02:01.149Z,55
2023-05-14T12:03:01.161Z,55
2023-05-14T12:04:01.189Z,57
2023-05-14T12:05:03.717Z,57
2023-05-14T12:06:01.197Z,57
2023-05-14T12:07:01.083Z,59
2023-05-14T12:08:01.167Z,59
2023-05-14T12:09:01.097Z,59
2023-05-14T12:10:05.618Z,60
2023-05-14T12:11:01.084Z,60
2023-05-14T12:12:01.191Z,61
2023-05-14T12:13:01.099Z,61
2023-05-14T12:14:01.224Z,61
2023-05-14T12:15:03.612Z,62
2023-05-14T12:16:01.193Z,62
2023-05-14T12:17:01.134Z,61
2023-05-14T12:18:02.280Z,61
2023-05-14T12:19:01.187Z,61
2023-05-14T12:20:04.410Z,61
2023-05-14T12:21:01.176Z,61
2023-05-14T12:22:01.210Z,62
2023-05-14T12:23:01.160Z,62
2023-05-14T12:24:00.521Z,62
2023-05-14T12:25:02.593Z,58
2023-05-14T12:26:00.259Z,58
2023-05-14T12:27:00.207Z,56
2023-05-14T12:28:00.238Z,56
2023-05-14T12:29:00.207Z,56
2023-05-14T12:30:19.933Z,54
2023-05-14T12:31:00.349Z,54
2023-05-14T12:32:00.320Z,54
2023-05-14T12:33:00.260Z,50
2023-05-14T12:34:00.313Z,50
2023-05-14T12:35:02.801Z,47
2023-05-14T12:36:07.196Z,47
2023-05-14T12:37:00.236Z,47
2023-05-14T12:38:00.551Z,47
2023-05-14T12:39:00.264Z,47
2023-05-14T12:40:03.903Z,49
2023-05-14T12:41:00.278Z,49
2023-05-14T12:42:00.529Z,49
2023-05-14T12:43:00.267Z,49
2023-05-14T12:44:00.420Z,49
2023-05-14T12:45:03.103Z,49
2023-05-14T12:46:00.568Z,49
2023-05-14T12:47:00.337Z,50
2023-05-14T12:48:00.399Z,50
2023-05-14T12:49:00.315Z,49
2023-05-14T12:50:03.730Z,49
2023-05-14T12:51:00.372Z,49
2023-05-14T12:52:17.420Z,49
2023-05-14T12:53:00.330Z,49
2023-05-14T12:54:00.526Z,49
2023-05-14T12:55:02.993Z,49
2023-05-14T12:56:00.468Z,49
2023-05-14T12:57:00.376Z,49
2023-05-14T12:58:00.429Z,48
2023-05-14T12:59:00.394Z,48
2023-05-14T13:00:04.726Z,49
2023-05-14T13:01:00.427Z,49
2023-05-14T13:02:00.499Z,49
2023-05-14T13:03:00.454Z,49
2023-05-14T13:04:00.516Z,49
2023-05-14T13:05:02.943Z,48
2023-05-14T13:06:00.529Z,48
2023-05-14T13:07:00.413Z,47
2023-05-14T13:08:02.081Z,47
2023-05-14T13:09:00.467Z,47
2023-05-14T13:10:03.686Z,49
2023-05-14T13:11:00.455Z,49
2023-05-14T13:12:00.561Z,50
2023-05-14T13:13:00.493Z,50
2023-05-14T13:14:00.572Z,50
2023-05-14T13:15:03.300Z,48
2023-05-14T13:16:00.541Z,48
2023-05-14T13:17:00.657Z,50
2023-05-14T13:18:00.638Z,50
2023-05-14T13:19:00.556Z,50
2023-05-14T13:20:04.434Z,49
2023-05-14T13:21:00.552Z,49
2023-05-14T13:22:00.620Z,47
2023-05-14T13:23:00.532Z,47
2023-05-14T13:24:00.632Z,47
2023-05-14T13:25:03.131Z,45
2023-05-14T13:26:00.669Z,45
2023-05-14T13:27:00.551Z,45
2023-05-14T13:28:00.627Z,41
2023-05-14T13:29:00.566Z,41
2023-05-14T13:30:04.161Z,43
2023-05-14T13:31:00.623Z,43
2023-05-14T13:32:00.688Z,43
2023-05-14T13:33:00.644Z,43
2023-05-14T13:34:00.673Z,43
2023-05-14T13:35:04.077Z,42
2023-05-14T13:36:00.714Z,42
2023-05-14T13:37:00.628Z,42
2023-05-14T13:38:00.733Z,43
2023-05-14T13:39:00.631Z,43
2023-05-14T13:40:04.654Z,42
2023-05-14T13:41:00.629Z,42
2023-05-14T13:42:00.731Z,42
2023-05-14T13:43:00.670Z,43
2023-05-14T13:44:00.730Z,43
2023-05-14T13:45:03.072Z,42
2023-05-14T13:46:00.749Z,42
2023-05-14T13:47:00.657Z,42
2023-05-14T13:48:00.829Z,42
2023-05-14T13:49:00.675Z,42
2023-05-14T13:50:04.427Z,42
2023-05-14T13:51:00.709Z,41
2023-05-14T13:52:00.753Z,41
2023-05-14T13:53:00.698Z,41
2023-05-14T13:54:00.829Z,41
2023-05-14T13:55:03.614Z,41
2023-05-14T13:56:00.795Z,42
2023-05-14T13:57:00.722Z,42
2023-05-14T13:58:00.781Z,42
2023-05-14T13:59:00.724Z,42
2023-05-14T14:00:05.086Z,43
2023-05-14T14:01:00.737Z,43
2023-05-14T14:02:00.882Z,43
2023-05-14T14:03:00.801Z,40
2023-05-14T14:04:00.807Z,40
2023-05-14T14:05:03.488Z,40
2023-05-14T14:06:00.861Z,40
2023-05-14T14:07:00.764Z,40
2023-05-14T14:08:17.846Z,40
2023-05-14T14:09:00.795Z,40
2023-05-14T14:10:05.565Z,40
2023-05-14T14:11:00.789Z,41
2023-05-14T14:12:00.874Z,41
2023-05-14T14:13:00.799Z,40
2023-05-14T14:14:00.922Z,40
2023-05-14T14:15:03.375Z,40
2023-05-14T14:16:00.897Z,41
2023-05-14T14:17:00.830Z,41
2023-05-14T14:18:00.953Z,41
2023-05-14T14:19:00.892Z,41